Search:

N Scale Model Trains Database

Engines, Rolling Stock, Structures, and Accessories

Kids enjoy NTRAK

Help us enter data and earn free trains. Details Here!

What is N-Scale?

Although it may be mistakenly called N-Gauge, derived from some of the earliest mass produced 1:152 "OOO" or "Treble-O" scale models manufactured by the British firm, Lone Star, in 1961, 9 mm wide (i.e., a track gauge of 0.354 inches, as measured between the inner sides of the rail) contemporary N-Scale model production was initiated by the German firm, Arnold Rapido, in 1962.

While a rail gauge of 9 mm remains constant for standard gauge (as opposed to narrow gauge) N-Scale locomotives and rolling-stock, depending upon the place of manufacture and/or the specific market that a model is targeted to be sold in, its size in proportion to its prototype (i.e., "scale") may be 1:148 (British Outline), 1:150 (for Japanese 3 foot 6 inch /1,067 mm or 4 foot 6 inch / 1,372 mm gauge trains), or 1:160 (for North American, Japanese 1,435 mm high-speed trains, and Continental European) scale. Read more here.

Body Style:
Brand:
Road/Company Name:
Model Type:
Total items in collection: 38641. Total items on page 170

First Image Brand Stock Number Road/Company Name Reporting Marks Road/Reporting Number Prototype Original Retail Price Market Release Date ID
Atlas 3151 Boston & Maine BM 5541 Covered Hopper, 2-Bay, PS-2 $8.25 H:$8.24 1995-01-01 101163
Atlas 3162 Lehigh & New England LNE 18168 Covered Hopper, 2-Bay, PS-2 $8.25 1995-01-01 123349
Atlas 3167 Elgin Joliet & Eastern EJ&E 3305 Covered Hopper, 2-Bay, PS-2 $8.50 1995-01-01 123350
Atlas 3170 Lehigh Valley LV 50707 Covered Hopper, 2-Bay, PS-2 $8.25 H:$10.25 1995-01-01 123351
Atlas 33600 Undecorated Boxcar, 50 Foot, Fruit Growers $8.00 H:$19.49 1995-01-01 127033
Atlas 33601 Burlington Northern BN 249219 Boxcar, 50 Foot, Fruit Growers $8.50 H:$33.79 1995-01-01 127034
Atlas 33611 Chicago & North Western Boxcar, 50 Foot, Fruit Growers $8.50 1995-01-01 127035
Atlas 33621 CSX Transportation CSXT 195906 Boxcar, 50 Foot, Fruit Growers $8.50 1995-01-01 127036
Atlas 33631 Rio Grande D&RGW 61415 Boxcar, 50 Foot, Fruit Growers $8.50 H:$11.50 1995-01-01 127037
Atlas 33641 Erie Lackawanna EL 69303 Boxcar, 50 Foot, Fruit Growers $8.50 1995-01-01 127038
Atlas 33651 Fruit Growers Express FGER 196287 Boxcar, 50 Foot, Fruit Growers $8.50 H:$12.97 1995-01-01 127039
Atlas 33661 Norfolk & Western NW 296817 Boxcar, 50 Foot, Fruit Growers $8.50 H:$10.00 1995-01-01 127040
Atlas 33671 Chessie System WM 475145 Boxcar, 50 Foot, Fruit Growers $9.50 E:$12.95 1995-01-01 127041
Atlas 33681 Conrail CR 369284 Boxcar, 50 Foot, Fruit Growers $8.50 H:$4.25 1995-01-01 127042
Atlas 33691 Chesapeake & Ohio C&O 897858 Boxcar, 50 Foot, Fruit Growers $8.50 E:$10.37 H:$5.68 1995-01-01 127043
Atlas 33701 Pennsylvania PRR 91904 Boxcar, 50 Foot, Fruit Growers $8.50 E:$11.99 H:$6.50 1995-01-01 127044
Atlas 33711 Western Pacific WPRX 97012 Boxcar, 50 Foot, Fruit Growers $8.50 H:$9.51 1995-01-01 127045
Atlas 33721 Penn Central PC Boxcar, 50 Foot, Fruit Growers $8.50 E:$15.99 H:$23.99 1995-01-01 127046
Atlas 33731 Providence & Worcester PW 1418 Boxcar, 50 Foot, Fruit Growers $8.75 H:$16.99 1995-01-01 127047
Atlas 33741 Rock Island ROCK 516668 Boxcar, 50 Foot, Fruit Growers $8.50 H:$15.50 1995-01-01 127048
Atlas 33751 Union Pacific UP 490598 Boxcar, 50 Foot, Fruit Growers $9.95 H:$14.00 1995-01-01 127049
Bachmann 26389 CSX Transportation CSX 8217 Engine, Diesel, SD40-2 $49.95 1995-01-01 95205
Bachmann UNKNOWN Canadian Pacific 5918 Engine, Diesel, SD40-2 1995-01-01 124569
Bachmann UNKNOWN Southern Pacific 7320 Engine, Diesel, SD40-2 1995-01-01 124570
E-R Models 70116 Conrail 21209 Caboose, Bay Window $12.95 E:$15.00 H:$6.33 1995-01-01 123884
E-R Models 70121 Erie C364 Caboose, Bay Window $12.95 E:$15.00 H:$9.06 1995-01-01 123835
E-R Models 70310 United States Navy USNX 1016 Tank Car, 40 Foot, Helium 1995-01-01 117406
E-R Models 70311 United States Army US ARMY 211 Tank Car, 40 Foot, Helium 1995-01-01 117407
E-R Models 70312 Atomic Energy Commission ATMX 1018 Tank Car, 40 Foot, Helium 1995-01-01 117408
InterMountain 66301-07 Robeson Processing RPCX 117 Tank Car, 8000 Gal, ACF 27 $18.95 1995-01-01 105150
InterMountain 66301-08 Robeson Processing RPCX 119 Tank Car, 8000 Gal, ACF 27 $18.95 1995-01-01 105151
InterMountain 66301-10 Robeson Processing RPCX 121 Tank Car, 8000 Gal, ACF 27 $18.95 1995-01-01 105154
InterMountain 66301-11 Robeson Processing RPCX 124 Tank Car, 8000 Gal, ACF 27 $18.95 1995-01-01 105153
InterMountain 66301-12 Robeson Processing RPCX 125 Tank Car, 8000 Gal, ACF 27 $18.95 H:$12.99 1995-01-01 105152
InterMountain 68801-01 Pacific Fruit Express PFE 457607 Reefer, 50 Foot, Steel Side $24.95 H:$14.87 1995-01-01 119215
InterMountain 68801-02 Pacific Fruit Express PFE 457632 Reefer, 50 Foot, Steel Side $24.95 H:$12.87 1995-01-01 119216
InterMountain 68801-03 Pacific Fruit Express PFE 457718 Reefer, 50 Foot, Steel Side $24.95 H:$13.92 1995-01-01 119217
InterMountain 68801-04 Pacific Fruit Express PFE 457870 Reefer, 50 Foot, Steel Side $24.95 H:$13.44 1995-01-01 119218
InterMountain 68801-05 Pacific Fruit Express PFE 457901 Reefer, 50 Foot, Steel Side $24.95 H:$14.82 1995-01-01 119219
InterMountain 68801-06 Pacific Fruit Express PFE 458055 Reefer, 50 Foot, Steel Side $24.95 H:$14.90 1995-01-01 119220
InterMountain 68802-01 Pacific Fruit Express PFE 457059 Reefer, 50 Foot, Steel Side $22.95 H:$12.79 1995-01-01 119247
InterMountain 68802-02 Pacific Fruit Express PFE 457124 Reefer, 50 Foot, Steel Side $22.95 H:$12.69 1995-01-01 119248
InterMountain 68802-03 Pacific Fruit Express PFE 457196 Reefer, 50 Foot, Steel Side $22.95 H:$15.41 1995-01-01 119249
InterMountain 68802-04 Pacific Fruit Express PFE 457263 Reefer, 50 Foot, Steel Side $22.95 H:$16.81 1995-01-01 119250
InterMountain 68802-05 Pacific Fruit Express PFE 457302 Reefer, 50 Foot, Steel Side $22.95 H:$15.75 1995-01-01 119251
InterMountain 68802-06 Pacific Fruit Express PFE 457489 Reefer, 50 Foot, Steel Side $22.95 H:$12.71 1995-01-01 119252
InterMountain 68805-07 Union Pacific UPFE 457571 Reefer, 50 Foot, Steel Side $24.95 1995-01-01 119241
InterMountain 68805-08 Union Pacific UPFE 457688 Reefer, 50 Foot, Steel Side $24.95 1995-01-01 119242
InterMountain 68805-09 Union Pacific UPFE 457749 Reefer, 50 Foot, Steel Side $24.95 1995-01-01 119243
InterMountain 68805-10 Union Pacific UPFE 457852 Reefer, 50 Foot, Steel Side $24.95 1995-01-01 119244
InterMountain 68805-11 Union Pacific UPFE 457906 Reefer, 50 Foot, Steel Side $24.95 1995-01-01 119245
InterMountain 68805-12 Union Pacific UPFE 458011 Reefer, 50 Foot, Steel Side $24.95 1995-01-01 119246
InterMountain 68806-01 Western Fruit Express BNSF 799341 Reefer, 50 Foot, Steel Side $22.95 E:$20.74 1995-01-01 119253
InterMountain 68806-02 Western Fruit Express BNSF 799336 Reefer, 50 Foot, Steel Side $22.95 1995-01-01 119254
InterMountain 68806-03 Western Fruit Express BNSF 799413 Reefer, 50 Foot, Steel Side $22.95 1995-01-01 119255
InterMountain 68806-04 Western Fruit Express BNSF 799416 Reefer, 50 Foot, Steel Side $22.95 1995-01-01 119256
InterMountain 68806-05 Western Fruit Express BNSF 799426 Reefer, 50 Foot, Steel Side $22.95 1995-01-01 119257
InterMountain 68806-06 Western Fruit Express BNSF 799475 Reefer, 50 Foot, Steel Side $22.95 E:$22.99 1995-01-01 119258
InterMountain 68806-07 Western Fruit Express BNSF 799480 Reefer, 50 Foot, Steel Side $22.95 H:$13.00 1995-01-01 119259
InterMountain 68806-08 Western Fruit Express BNSF 799582 Reefer, 50 Foot, Steel Side $22.95 H:$12.89 1995-01-01 119260
InterMountain 68806-09 Western Fruit Express BNSF 799596 Reefer, 50 Foot, Steel Side $22.95 H:$12.89 1995-01-01 119261
InterMountain 68806-10 Western Fruit Express BNSF 799487 Reefer, 50 Foot, Steel Side $22.95 E:$22.95 H:$13.00 1995-01-01 119262
InterMountain 68806-11 Western Fruit Express BNSF 799504 Reefer, 50 Foot, Steel Side $22.95 E:$22.95 1995-01-01 119263
InterMountain 68806-12 Western Fruit Express BNSF 799559 Reefer, 50 Foot, Steel Side $22.95 1995-01-01 119264
InterMountain 68807-13 Pacific Fruit Express SPFE 458708 Reefer, 50 Foot, Steel Side $24.95 1995-01-01 119235
InterMountain 68807-14 Pacific Fruit Express SPFE 458839 Reefer, 50 Foot, Steel Side $24.95 1995-01-01 119236
InterMountain 68807-15 Pacific Fruit Express SPFE 458963 Reefer, 50 Foot, Steel Side $24.95 1995-01-01 119237
InterMountain 68807-16 Pacific Fruit Express SPFE 459037 Reefer, 50 Foot, Steel Side $24.95 1995-01-01 119238
InterMountain 68807-17 Pacific Fruit Express SPFE 459122 Reefer, 50 Foot, Steel Side $24.95 1995-01-01 119239
InterMountain 68807-18 Pacific Fruit Express SPFE 459215 Reefer, 50 Foot, Steel Side $24.95 1995-01-01 119240
InterMountain 68808-07 Golden West Service VCY 25013 Reefer, 50 Foot, Steel Side $24.95 1995-01-01 119229
InterMountain 68808-08 Golden West Service VCY 25019 Reefer, 50 Foot, Steel Side $24.95 1995-01-01 119230
InterMountain 68808-09 Golden West Service VCY 25075 Reefer, 50 Foot, Steel Side $24.95 1995-01-01 119231
InterMountain 68808-10 Golden West Service VCY 25141 Reefer, 50 Foot, Steel Side $24.95 1995-01-01 119232
InterMountain 68808-11 Golden West Service VCY 25184 Reefer, 50 Foot, Steel Side $24.95 1995-01-01 119233
InterMountain 68808-12 Golden West Service VCY 25217 Reefer, 50 Foot, Steel Side $24.95 1995-01-01 119234
InterMountain 68813-07 Pacific Fruit Express SPFE 459521 Reefer, 50 Foot, Steel Side $22.95 H:$11.83 1995-01-01 119265
InterMountain 68813-08 Pacific Fruit Express SPFE 459637 Reefer, 50 Foot, Steel Side $22.95 H:$11.22 1995-01-01 119266
InterMountain 68813-09 Pacific Fruit Express SPFE 459768 Reefer, 50 Foot, Steel Side $22.95 H:$11.06 1995-01-01 119267
InterMountain 68813-10 Pacific Fruit Express SPFE 459812 Reefer, 50 Foot, Steel Side $22.95 H:$11.50 1995-01-01 119268
InterMountain 68813-11 Pacific Fruit Express SPFE 459983 Reefer, 50 Foot, Steel Side $22.95 H:$11.79 1995-01-01 119269
InterMountain 68813-12 Pacific Fruit Express SPFE 460050 Reefer, 50 Foot, Steel Side $22.95 H:$14.24 1995-01-01 119270
InterMountain 68814-01 Burlington Northern BNFE 19351 Reefer, 50 Foot, Steel Side $22.95 H:$9.55 1995-01-01 119271
InterMountain 68814-02 Burlington Northern BNFE 19389 Reefer, 50 Foot, Steel Side $22.95 E:$22.95 H:$12.62 1995-01-01 119272
InterMountain 68814-03 Burlington Northern BNFE 19404 Reefer, 50 Foot, Steel Side $22.95 1995-01-01 119273
InterMountain 68814-04 Burlington Northern BNFE 19432 Reefer, 50 Foot, Steel Side $22.95 E:$19.99 1995-01-01 119274
InterMountain 68814-05 Burlington Northern BNFE 19547 Reefer, 50 Foot, Steel Side $22.95 E:$19.99 1995-01-01 119275
InterMountain 68814-06 Burlington Northern BNFE 19570 Reefer, 50 Foot, Steel Side $22.95 E:$22.95 1995-01-01 119276
InterMountain 68814-07 Burlington Northern BNFE 19325 Reefer, 50 Foot, Steel Side $22.95 E:$18.49 H:$11.05 1995-01-01 119277
InterMountain 68814-08 Burlington Northern BNFE 19390 Reefer, 50 Foot, Steel Side $22.95 H:$11.75 1995-01-01 119278
InterMountain 68814-09 Burlington Northern BNFE 19400 Reefer, 50 Foot, Steel Side $22.95 H:$8.50 1995-01-01 119279
InterMountain 68814-10 Burlington Northern BNFE 19425 Reefer, 50 Foot, Steel Side $22.95 H:$12.86 1995-01-01 119280
InterMountain 68814-11 Burlington Northern BNFE 19451 Reefer, 50 Foot, Steel Side $22.95 H:$8.50 1995-01-01 119281
InterMountain 68814-12 Burlington Northern BNFE 19535 Reefer, 50 Foot, Steel Side $22.95 1995-01-01 119282
InterMountain 68815-01 Milwaukee Road MILW 9807 Reefer, 50 Foot, Steel Side $24.95 E:$22.95 H:$12.02 1995-01-01 119295
InterMountain 68815-02 Milwaukee Road MILW 9812 Reefer, 50 Foot, Steel Side $24.95 H:$11.52 1995-01-01 119296
InterMountain 68815-03 Milwaukee Road MILW 9840 Reefer, 50 Foot, Steel Side $24.95 H:$12.52 1995-01-01 119297
InterMountain 68815-04 Milwaukee Road MILW 9858 Reefer, 50 Foot, Steel Side $24.95 H:$12.56 1995-01-01 119298
InterMountain 68815-05 Milwaukee Road MILW 9875 Reefer, 50 Foot, Steel Side $24.95 E:$21.80 H:$11.52 1995-01-01 119299
InterMountain 68815-06 Milwaukee Road MILW 9886 Reefer, 50 Foot, Steel Side $24.95 E:$22.95 H:$11.06 1995-01-01 119300
InterMountain 68816-01 Western Fruit Express BNFE 19030 Reefer, 50 Foot, Steel Side $22.95 1995-01-01 119283
InterMountain 68816-02 Western Fruit Express BNFE 19076 Reefer, 50 Foot, Steel Side $22.95 1995-01-01 119291
InterMountain 68816-03 Western Fruit Express BNFE 19122 Reefer, 50 Foot, Steel Side $22.95 1995-01-01 119292
InterMountain 68816-04 Western Fruit Express BNFE 19126 Reefer, 50 Foot, Steel Side $22.95 1995-01-01 119293
InterMountain 68816-05 Western Fruit Express BNFE 19149 Reefer, 50 Foot, Steel Side $22.95 1995-01-01 119294
InterMountain 68816-06 Western Fruit Express BNFE 19150 Reefer, 50 Foot, Steel Side $22.95 1995-01-01 119284
InterMountain 68816-07 Western Fruit Express BNFE 19039 Reefer, 50 Foot, Steel Side $22.95 1995-01-01 119285
InterMountain 68816-08 Western Fruit Express BNFE 19042 Reefer, 50 Foot, Steel Side $22.95 1995-01-01 119286
InterMountain 68816-09 Western Fruit Express BNFE 19083 Reefer, 50 Foot, Steel Side $22.95 1995-01-01 119287
InterMountain 68816-10 Western Fruit Express BNFE 19104 Reefer, 50 Foot, Steel Side $22.95 1995-01-01 119288
InterMountain 68816-11 Western Fruit Express BNFE 19162 Reefer, 50 Foot, Steel Side $22.95 1995-01-01 119289
InterMountain 68816-12 Western Fruit Express BNFE 19197 Reefer, 50 Foot, Steel Side $22.95 1995-01-01 119290
InterMountain 68817-01 Burlington Northern BNFE 9330 Reefer, 50 Foot, Steel Side $24.95 1995-01-01 119302
InterMountain 68817-02 Burlington Northern BNFE 9411 Reefer, 50 Foot, Steel Side $24.95 1995-01-01 119303
InterMountain 68817-03 Burlington Northern BNFE 9435 Reefer, 50 Foot, Steel Side $24.95 1995-01-01 119304
InterMountain 68817-04 Burlington Northern BNFE 9504 Reefer, 50 Foot, Steel Side $24.95 E:$22.95 1995-01-01 119305
InterMountain 68817-05 Burlington Northern BNFE 9579 Reefer, 50 Foot, Steel Side $24.95 1995-01-01 119306
InterMountain 68817-06 Burlington Northern BNFE 9681 Reefer, 50 Foot, Steel Side $24.95 1995-01-01 119307
InterMountain 68818-07 Pacific Fruit Express SPFE 459533 Reefer, 50 Foot, Steel Side $24.95 E:$22.95 H:$16.35 1995-01-01 119308
InterMountain 68818-08 Pacific Fruit Express SPFE 459647 Reefer, 50 Foot, Steel Side $24.95 E:$22.95 H:$15.15 1995-01-01 119309
InterMountain 68818-09 Pacific Fruit Express SPFE 459931 Reefer, 50 Foot, Steel Side $24.95 E:$22.95 H:$14.49 1995-01-01 119310
InterMountain 68818-10 Pacific Fruit Express SPFE 459973 Reefer, 50 Foot, Steel Side $24.95 E:$21.80 H:$13.66 1995-01-01 119311
InterMountain 68818-11 Pacific Fruit Express SPFE 459984 Reefer, 50 Foot, Steel Side $24.95 E:$8.59 H:$16.33 1995-01-01 119312
InterMountain 68818-12 Pacific Fruit Express SPFE 460072 Reefer, 50 Foot, Steel Side $24.95 E:$21.80 H:$22.99 1995-01-01 119313
InterMountain 68819-07 Union Pacific UPFE 461845 Reefer, 50 Foot, Steel Side $24.95 E:$22.99 H:$9.49 1995-01-01 119314
InterMountain 68819-08 Union Pacific UPFE 461899 Reefer, 50 Foot, Steel Side $24.95 1995-01-01 119315
InterMountain 68819-09 Union Pacific UPFE 461934 Reefer, 50 Foot, Steel Side $24.95 1995-01-01 119316
InterMountain 68819-10 Union Pacific UPFE 462065 Reefer, 50 Foot, Steel Side $24.95 E:$22.99 H:$9.50 1995-01-01 119317
InterMountain 68819-11 Union Pacific UPFE 462080 Reefer, 50 Foot, Steel Side $24.95 E:$22.99 H:$9.49 1995-01-01 119318
InterMountain 68819-12 Union Pacific UPFE 462105 Reefer, 50 Foot, Steel Side $24.95 E:$22.99 1995-01-01 119319
InterMountain 68820-01 Great Northern WFEX 9001 Reefer, 40 Foot, Steel Side $12.95 1995-01-01 116968
InterMountain 68820-02 Great Northern WFEX 9006 Reefer, 40 Foot, Steel Side $12.95 E:$22.95 H:$34.87 1995-01-01 95209
InterMountain 68820-03 Great Northern WFEX 9010 Reefer, 40 Foot, Steel Side $12.95 E:$22.95 1995-01-01 116966
InterMountain 68820-05 Great Northern WFEX 9018 Reefer, 40 Foot, Steel Side $12.95 E:$21.80 1995-01-01 116965
InterMountain 68820-06 Great Northern WFEX 9023 Reefer, 40 Foot, Steel Side $12.95 E:$22.95 1995-01-01 116967
InterMountain 68824-01 Santa Fe SFRC 55467 Reefer, 50 Foot, Steel Side $24.95 1995-01-01 119160
InterMountain 68824-02 Santa Fe SFRC 55496 Reefer, 50 Foot, Steel Side $24.95 1995-01-01 119161
InterMountain 68824-03 Santa Fe SFRC 55539 Reefer, 50 Foot, Steel Side $24.95 1995-01-01 119162
InterMountain 68824-04 Santa Fe SFRC 55564 Reefer, 50 Foot, Steel Side $24.95 1995-01-01 119163
InterMountain 68824-05 Santa Fe SFRC 55643 Reefer, 50 Foot, Steel Side $24.95 1995-01-01 119164
InterMountain 68824-06 Santa Fe SFRC 55672 Reefer, 50 Foot, Steel Side $24.95 1995-01-01 119165
InterMountain 68825-01 Pacific Fruit Express SPFE 456948 Reefer, 50 Foot, Steel Side $24.95 H:$13.84 1995-01-01 119166
InterMountain 68825-02 Pacific Fruit Express SPFE 457031 Reefer, 50 Foot, Steel Side $24.95 H:$11.04 1995-01-01 119167
InterMountain 68825-03 Pacific Fruit Express SPFE 457118 Reefer, 50 Foot, Steel Side $24.95 H:$13.41 1995-01-01 119168
InterMountain 68825-04 Pacific Fruit Express SPFE 457144 Reefer, 50 Foot, Steel Side $24.95 H:$12.94 1995-01-01 119169
InterMountain 68825-05 Pacific Fruit Express SPFE 457248 Reefer, 50 Foot, Steel Side $24.95 1995-01-01 119170
InterMountain 68825-06 Pacific Fruit Express SPFE 457366 Reefer, 50 Foot, Steel Side $24.95 H:$11.55 1995-01-01 119171
Life-Like 7157 Amtrak 278 Engine, Diesel, E8 E:$14.99 H:$30.00 1995-01-01 119185
Life-Like 7172 Union Pacific UP 928 Engine, Diesel, E8 H:$31.50 1995-01-01 95157
Micro-Trains 20206 Canadian National CN 521995 Boxcar, Steel, 40 Foot, Single Sliding Door $10.40 E:$16.43 H:$8.63 1995-01-01 96368
Micro-Trains 20240 New York Central NYC 174710 Boxcar, Steel, 40 Foot, Single Sliding Door E:$18.00 H:$10.57 1995-01-01 20402
Micro-Trains 20760 Southern Pacific SP 163324 Boxcar, Steel, 40 Foot, Single Sliding Door E:$19.98 H:$12.09 C:$11.75 1995-01-01 20593
Micro-Trains 42060 Potlatch Forests Inc. POTL 424 Boxcar, Wood Sheathed, 40 Foot, Single Sliding Door $12.65 E:$14.81 H:$10.71 1995-01-01 21889
Micro-Trains 53010 Burlington Northern BN 624463 Flatcar, 60 Foot, Centerbeam H:$19.77 1995-01-01 22523
Micro-Trains 60010 Milwaukee Road MILW 80344 Gondola, Composite, Straight Side E:$14.73 H:$13.67 1995-01-01 22977
Micro-Trains 71520 Trailer Train TTX 252705 Flatcar, 89 Foot, TOFC H:$14.52 1995-01-01 23417
Micro-Trains Special Run NSC 95-34 NMRA MP 266929 Boxcar, Steel, 50 Foot, Rib Side, Single Plug Door, Without Roofwalk $18.00 1995-01-01 126585
Micro-Trains Special Run NSC 95-35 Alaska Railroad 6464825 Boxcar, Steel, 40 Foot, Single Sliding Door $19.95 1995-01-01 126687
Micro-Trains Special Run NSC 95-45 Mid Continent Petroleum OSKX 850 39 Foot Tank Car 1995-01-01 104223
Micro-Trains Special Run NSC 95-46 Cascade & Western 20500 Boxcar, Steel, 40 Foot, Single Sliding Door $17.00 1995-01-01 125784
Micro-Trains Special Run NSC 95-56 Belmont Shore Lines BSL 219950, 219957 Boxcar, Steel, 50 Foot, Plug Door, No Roofwalk $39.95 1995-01-01 97657
Model Power 3121 Chessie System C&O 3358 Caboose, Bay Window E:$8.08 H:$1.75 1995-01-01 119652
Model Power 3123 Conrail 21146 Caboose, Bay Window E:$20.85 H:$8.07 1995-01-01 119653
Model Power 3125 Pennsylvania 15723 Caboose, Bay Window H:$7.66 1995-01-01 119654
Model Power 3128 Canadian Pacific CP 203581 Caboose, Bay Window E:$11.99 1995-01-01 119656
Model Power 3129 Amtrak 14000 Caboose, Bay Window 1995-01-01 119651
Model Power 3131 Southern Pacific 4755 Caboose, Bay Window E:$11.24 1995-01-01 119655
The Freight Yard fy1 Mid Iowa Corp RRRX 2141 Covered Hopper, 3-Bay, Centerflow $8.98 1995-01-01 95207
The Freight Yard fy2 Mid Iowa Corp RRRX 2143 Covered Hopper, 3-Bay, Centerflow $8.98 1995-01-01 95208
The Freight Yard fy3 Canadian National CN 384520 Covered Hopper, 3-Bay, Centerflow $8.98 1995-01-01 95206